CheckWX is a tool to help pilots better visualize weather data.  It is not intended as a substitute for an official pre-flight weather briefing.

14:42:25 UTC

KBNA METAR
Nashville International Airport
Nashville, Tennessee, USA
Current

49 mins ago

KBNA 221353Z 00000KT 10SM FEW150 FEW250 17/08 A3022 RMK AO2 SLP230 T01670078
Observed
Apr-22 @ 13:53 UTC
Visibility
10 SM
Flight Rules
VFR
Cloud Levels
  • Few at 15,000' AGL
  • Few at 25,000' AGL
Temperature
17°C / 63°F
Dewpoint
C / 46°F
Humidity
56%
Altimeter
30.22" Hg
Pressure
1023.42 hPa
Previous

2 hours ago

KBNA 221253Z 00000KT 10SM FEW180 FEW250 13/07 A3023 RMK AO2 SLP233 T01280067
Observed
Apr-22 @ 12:53 UTC
Visibility
10 SM
Flight Rules
VFR
Cloud Levels
  • Few at 18,000' AGL
  • Few at 25,000' AGL
Temperature
13°C / 55°F
Dewpoint
C / 45°F
Humidity
67%
Altimeter
30.23" Hg
Pressure
1023.72 hPa
Previous

3 hours ago

KBNA 221153Z 00000KT 10SM FEW180 10/06 A3020 RMK AO2 SLP224 T01000056 10111 20078 53013
Observed
Apr-22 @ 11:53 UTC
Visibility
10 SM
Flight Rules
VFR
Cloud Levels
  • Few at 18,000' AGL
Temperature
10°C / 50°F
Dewpoint
C / 43°F
Humidity
76%
Altimeter
30.2" Hg
Pressure
1022.72 hPa